Time;durP1;ratioP1;P1;durP2;ratioP2;P2;SDS_P1;SDS_P2;PMS_P1;PMS_P2;Temp;Humidity;BMP_temperature;BMP_pressure;BME280_temperature;BME280_humidity;BME280_pressure;Samples;Min_cycle;Max_cycle;Signal;HPM_P1;HPM_P2
2023/02/02 00:01:45;;;;;;;229.48;209.35;;;;;;;3.90;83.08;101142.63;5020669;28;20044;-70
2023/02/02 00:04:17;;;;;;;230.73;210.05;;;;;;;3.85;83.50;101158.34;5020421;28;20173;-71
2023/02/02 00:06:44;;;;;;;228.13;207.23;;;;;;;3.86;83.08;101136.13;4998893;28;20041;-72
2023/02/02 00:09:13;;;;;;;210.75;190.10;;;;;;;3.87;83.19;101169.56;5024710;28;20033;-72
2023/02/02 00:11:41;;;;;;;209.88;189.30;;;;;;;4.02;81.87;101156.81;5027634;28;20557;-71
2023/02/02 00:14:07;;;;;;;228.95;208.65;;;;;;;4.00;82.20;101158.88;5028860;28;20040;-73
2023/02/02 00:16:35;;;;;;;227.23;208.02;;;;;;;4.00;82.48;101164.19;5015541;28;20084;-72
2023/02/02 00:19:05;;;;;;;226.10;207.10;;;;;;;3.92;82.99;101177.66;5026253;28;20052;-72
2023/02/02 00:21:31;;;;;;;209.43;188.98;;;;;;;3.80;83.54;101171.47;5029500;28;20434;-72
2023/02/02 00:23:57;;;;;;;225.25;205.95;;;;;;;4.00;82.45;101184.56;5027100;28;20057;-71
2023/02/02 00:26:23;;;;;;;210.30;189.73;;;;;;;3.99;82.24;101167.84;5029058;28;20076;-71
2023/02/02 00:28:48;;;;;;;208.13;187.52;;;;;;;3.94;83.40;101193.38;5011351;28;20038;-71
2023/02/02 00:31:14;;;;;;;208.55;188.25;;;;;;;4.07;82.71;101177.38;5010010;28;20072;-72
2023/02/02 00:33:44;;;;;;;208.13;187.43;;;;;;;4.01;82.66;101173.75;5023241;28;20057;-72
2023/02/02 00:36:10;;;;;;;209.15;188.63;;;;;;;3.96;83.18;101180.72;5028290;28;20041;-72
2023/02/02 00:38:36;;;;;;;224.95;205.25;;;;;;;4.04;83.31;101199.81;5026710;28;20394;-71
2023/02/02 00:41:03;;;;;;;225.20;205.63;;;;;;;3.90;83.16;101200.13;5001871;28;20044;-73
2023/02/02 00:43:29;;;;;;;229.50;209.68;;;;;;;3.97;82.99;101207.00;5023350;28;20053;-70
2023/02/02 00:45:54;;;;;;;209.38;189.48;;;;;;;3.92;83.55;101206.00;5013897;28;20095;-71
2023/02/02 00:48:21;;;;;;;226.35;206.73;;;;;;;3.93;83.98;101220.88;5027881;28;20114;-70
2023/02/02 00:50:46;;;;;;;225.38;206.40;;;;;;;3.94;83.65;101212.75;5010138;28;20064;-71
2023/02/02 00:53:12;;;;;;;227.63;207.20;;;;;;;3.97;83.73;101222.09;5025380;28;20044;-71
2023/02/02 00:55:38;;;;;;;210.75;190.45;;;;;;;4.00;82.62;101222.47;5044956;28;20037;-70
2023/02/02 00:58:04;;;;;;;226.27;206.38;;;;;;;4.14;81.79;101227.69;5023565;28;20238;-72
2023/02/02 01:00:29;;;;;;;210.40;190.50;;;;;;;4.16;81.96;101230.94;5007851;28;20095;-72
2023/02/02 01:02:55;;;;;;;209.90;189.50;;;;;;;4.03;81.93;101232.66;4997838;28;20040;-72
2023/02/02 01:05:21;;;;;;;228.48;209.10;;;;;;;3.91;82.35;101229.03;5010150;28;20033;-71
2023/02/02 01:07:47;;;;;;;225.77;206.60;;;;;;;4.03;82.01;101240.59;5013354;28;20780;-72
2023/02/02 01:10:16;;;;;;;227.60;207.48;;;;;;;3.96;82.66;101229.22;5015265;28;20035;-72
2023/02/02 01:12:43;;;;;;;223.88;205.02;;;;;;;3.92;82.92;101233.31;5025257;28;20039;-72
2023/02/02 01:15:10;;;;;;;212.00;191.73;;;;;;;3.87;83.12;101233.16;4998303;28;20128;-71
2023/02/02 01:17:36;;;;;;;209.50;189.38;;;;;;;3.95;82.24;101240.84;5023676;28;20029;-73
2023/02/02 01:20:03;;;;;;;227.13;207.57;;;;;;;3.87;82.78;101238.47;5038832;28;20037;-71
2023/02/02 01:22:29;;;;;;;225.50;206.50;;;;;;;3.71;83.42;101239.75;4987953;28;20038;-74
2023/02/02 01:24:55;;;;;;;207.45;187.75;;;;;;;3.72;83.31;101235.28;5026566;28;20749;-71
2023/02/02 01:27:21;;;;;;;227.50;208.10;;;;;;;3.62;83.20;101250.81;5003931;28;20041;-72
2023/02/02 01:29:46;;;;;;;207.68;187.75;;;;;;;3.49;83.77;101247.19;5003750;28;20049;-72
2023/02/02 01:32:12;;;;;;;208.75;188.98;;;;;;;3.52;83.83;101257.38;5027463;28;20574;-71
2023/02/02 01:34:42;;;;;;;229.48;209.55;;;;;;;3.37;84.21;101262.09;5021729;28;20033;-72
2023/02/02 01:37:10;;;;;;;225.38;206.07;;;;;;;3.53;83.96;101269.59;5008724;28;20038;-71
2023/02/02 01:39:36;;;;;;;228.35;208.07;;;;;;;3.66;82.96;101265.25;5008911;28;20763;-72
2023/02/02 01:42:09;;;;;;;227.45;207.77;;;;;;;3.72;82.85;101264.41;5023270;28;20044;-72
2023/02/02 01:45:06;;;;;;;209.20;188.43;;;;;;;3.72;83.66;101285.59;5005964;28;20045;-71
2023/02/02 01:47:57;;;;;;;211.20;190.68;;;;;;;3.93;82.18;101282.66;4988791;28;20042;-71
2023/02/02 01:50:29;;;;;;;211.15;190.85;;;;;;;3.98;82.41;101282.81;5024112;28;20049;-72
2023/02/02 01:52:57;;;;;;;225.60;206.70;;;;;;;3.90;83.30;101284.91;4991785;28;20065;-72
2023/02/02 01:55:25;;;;;;;208.88;188.43;;;;;;;3.97;83.36;101283.84;4986773;28;20100;-70
2023/02/02 01:58:03;;;;;;;224.30;205.30;;;;;;;3.93;83.00;101300.38;5005529;28;20044;-70
2023/02/02 02:00:31;;;;;;;208.95;188.90;;;;;;;3.84;83.40;101297.97;5020984;28;20037;-70
2023/02/02 02:03:07;;;;;;;208.82;188.80;;;;;;;3.87;81.97;101307.34;5022294;28;20169;-71
2023/02/02 02:05:40;;;;;;;210.73;190.68;;;;;;;3.74;83.55;101320.66;5018710;28;20099;-73
2023/02/02 02:08:22;;;;;;;207.75;187.55;;;;;;;3.80;84.00;101333.06;5018441;28;20116;-71
2023/02/02 02:10:48;;;;;;;223.68;204.98;;;;;;;3.84;83.66;101327.13;5020865;28;20033;-70
2023/02/02 02:13:15;;;;;;;204.55;185.57;;;;;;;3.69;84.34;101326.56;5026761;28;20040;-71
2023/02/02 02:19:13;;;;;;;211.02;190.98;;;;;;;3.64;86.01;101338.81;5007893;28;21517;-71
2023/02/02 02:28:26;;;;;;;211.40;190.50;;;;;;;3.77;86.79;101362.63;5018131;28;20094;-71
2023/02/02 02:31:24;;;;;;;228.15;207.85;;;;;;;3.71;86.24;101368.75;4988473;28;20045;-73
2023/02/02 02:34:18;;;;;;;210.27;190.27;;;;;;;3.85;86.08;101367.69;5000324;28;20045;-72
2023/02/02 02:36:43;;;;;;;209.95;189.57;;;;;;;3.82;86.58;101368.13;5025907;28;20501;-71
2023/02/02 02:39:19;;;;;;;226.30;207.00;;;;;;;3.73;86.28;101369.38;5023629;28;20040;-72
2023/02/02 02:41:51;;;;;;;208.98;188.75;;;;;;;3.61;86.54;101365.75;4993560;28;20044;-72
2023/02/02 02:44:18;;;;;;;225.30;206.00;;;;;;;3.50;86.88;101375.94;5008379;28;20263;-71
2023/02/02 02:46:48;;;;;;;228.57;208.43;;;;;;;3.31;86.48;101371.47;5008126;28;20091;-72
2023/02/02 02:49:13;;;;;;;225.52;205.43;;;;;;;3.23;86.77;101379.66;5008688;28;20072;-73
2023/02/02 02:51:47;;;;;;;211.65;191.25;;;;;;;3.05;87.56;101363.56;4995417;28;20033;-72
2023/02/02 02:54:31;;;;;;;209.80;189.45;;;;;;;3.24;87.37;101370.69;5010986;28;20069;-72
2023/02/02 02:57:03;;;;;;;227.30;207.23;;;;;;;3.04;87.33;101377.81;5011496;28;20026;-72
2023/02/02 02:59:52;;;;;;;228.38;208.60;;;;;;;2.97;87.64;101378.63;4991409;28;20045;-71
2023/02/02 03:02:34;;;;;;;227.23;207.13;;;;;;;3.11;87.21;101384.72;4989184;28;20107;-73
2023/02/02 03:05:31;;;;;;;230.30;209.40;;;;;;;3.20;87.45;101395.94;5022467;28;20499;-72
2023/02/02 03:08:08;;;;;;;227.30;207.60;;;;;;;3.40;86.28;101391.44;5003698;28;20054;-72
2023/02/02 03:10:38;;;;;;;211.90;191.52;;;;;;;3.34;86.49;101379.03;5020371;28;20034;-71
2023/02/02 03:13:09;;;;;;;211.60;191.13;;;;;;;3.49;86.22;101392.03;5004832;28;20056;-71
2023/02/02 03:15:35;;;;;;;228.70;208.88;;;;;;;3.53;86.04;101395.91;5019475;28;20046;-74
2023/02/02 03:18:00;;;;;;;209.48;189.32;;;;;;;3.73;84.59;101398.50;5010651;28;20100;-70
2023/02/02 03:20:26;;;;;;;225.05;206.52;;;;;;;3.55;85.82;101404.47;5003243;28;20038;-71
2023/02/02 03:22:52;;;;;;;206.20;186.52;;;;;;;3.63;84.43;101400.75;5023313;28;20053;-71
2023/02/02 03:25:18;;;;;;;223.15;204.32;;;;;;;3.51;85.28;101409.34;5017710;28;20045;-71
2023/02/02 03:27:44;;;;;;;227.98;208.80;;;;;;;3.73;83.52;101409.13;5004687;28;20349;-71
2023/02/02 03:30:12;;;;;;;208.35;189.00;;;;;;;3.70;84.82;101412.16;5017395;28;20168;-72
2023/02/02 03:32:39;;;;;;;226.15;207.55;;;;;;;3.68;84.21;101424.81;4999906;28;20191;-71
2023/02/02 03:35:05;;;;;;;224.38;205.27;;;;;;;3.62;84.52;101417.69;4987547;28;20051;-70
2023/02/02 03:37:31;;;;;;;207.55;187.88;;;;;;;3.51;85.14;101425.22;4998866;28;20105;-72
2023/02/02 03:39:59;;;;;;;205.13;185.85;;;;;;;3.37;85.64;101431.56;5007933;28;20121;-71
2023/02/02 03:42:25;;;;;;;205.18;185.73;;;;;;;3.37;85.28;101431.56;5017959;28;20030;-72
2023/02/02 03:44:50;;;;;;;207.95;187.90;;;;;;;3.31;85.66;101445.63;5003060;28;20600;-72
2023/02/02 03:47:16;;;;;;;206.48;186.90;;;;;;;3.35;85.82;101446.84;5004309;28;20518;-73
2023/02/02 03:49:42;;;;;;;225.20;206.50;;;;;;;3.50;84.94;101452.72;4991392;28;20041;-73
2023/02/02 03:52:07;;;;;;;206.73;187.15;;;;;;;3.50;84.51;101465.97;4987994;28;20159;-72
2023/02/02 03:54:33;;;;;;;208.23;188.73;;;;;;;3.26;85.84;101469.25;5003982;28;20049;-71
2023/02/02 03:57:01;;;;;;;224.88;206.63;;;;;;;3.17;85.71;101471.25;5021160;28;20029;-71
2023/02/02 03:59:27;;;;;;;204.27;185.13;;;;;;;3.14;85.70;101476.16;5030477;28;20038;-72
2023/02/02 04:01:52;;;;;;;222.18;203.50;;;;;;;3.14;86.00;101482.28;4988201;28;20866;-72
2023/02/02 04:04:18;;;;;;;208.25;189.00;;;;;;;3.38;84.36;101480.84;4991716;28;20521;-72
2023/02/02 04:06:44;;;;;;;223.68;205.65;;;;;;;3.36;84.45;101480.25;5003629;28;20049;-72
2023/02/02 04:09:09;;;;;;;205.65;186.68;;;;;;;3.10;85.14;101481.03;5004978;28;20041;-72
2023/02/02 04:11:35;;;;;;;204.90;186.35;;;;;;;2.95;85.30;101478.56;5005056;28;20046;-74
2023/02/02 04:14:01;;;;;;;205.88;187.30;;;;;;;3.03;85.16;101474.91;5020469;28;20046;-72
2023/02/02 04:16:26;;;;;;;222.15;204.55;;;;;;;3.20;84.96;101491.25;5018193;28;20033;-71
2023/02/02 04:18:52;;;;;;;205.77;187.02;;;;;;;2.97;85.17;101488.94;5018465;28;20045;-72
2023/02/02 04:21:18;;;;;;;206.18;187.07;;;;;;;3.15;84.75;101491.03;5004833;28;20112;-72
2023/02/02 04:23:43;;;;;;;226.18;207.30;;;;;;;3.15;85.61;101493.66;4992692;28;21739;-72
2023/02/02 04:26:09;;;;;;;225.85;207.32;;;;;;;3.30;84.81;101496.94;5012470;28;20038;-70
2023/02/02 04:28:34;;;;;;;209.10;189.73;;;;;;;3.31;84.93;101503.84;5014940;28;20491;-71
2023/02/02 04:31:00;;;;;;;206.93;187.32;;;;;;;3.26;85.84;101508.97;5002704;28;20040;-72
2023/02/02 04:33:27;;;;;;;206.40;187.30;;;;;;;3.31;85.45;101511.78;5021108;28;20072;-71
2023/02/02 04:35:53;;;;;;;206.23;186.85;;;;;;;3.36;85.52;101505.91;5004285;28;20050;-71
2023/02/02 04:38:19;;;;;;;208.18;188.20;;;;;;;3.36;85.77;101516.50;4998808;28;20108;-72
2023/02/02 04:40:46;;;;;;;223.32;204.63;;;;;;;3.36;85.90;101530.56;5002519;28;20156;-72
2023/02/02 04:43:12;;;;;;;223.30;204.18;;;;;;;3.44;85.25;101535.63;5003206;28;20042;-72
2023/02/02 04:45:38;;;;;;;223.82;204.65;;;;;;;3.36;86.52;101537.69;4998864;28;20045;-72
2023/02/02 04:48:04;;;;;;;222.10;203.55;;;;;;;3.48;85.94;101539.53;5017289;28;20030;-71
2023/02/02 04:50:30;;;;;;;224.77;205.82;;;;;;;3.44;86.10;101535.63;4999937;28;20046;-71
2023/02/02 04:52:57;;;;;;;204.75;185.30;;;;;;;3.28;86.29;101536.84;4987540;28;20038;-72
2023/02/02 04:55:23;;;;;;;220.38;201.90;;;;;;;3.40;85.47;101534.44;4986880;28;20034;-71
2023/02/02 04:57:48;;;;;;;223.98;204.95;;;;;;;3.36;85.65;101542.97;5023797;28;20033;-71
2023/02/02 05:00:14;;;;;;;221.35;202.73;;;;;;;3.27;85.93;101540.53;5009015;28;20048;-72
2023/02/02 05:02:40;;;;;;;224.23;205.05;;;;;;;3.24;85.92;101548.03;5008423;28;20022;-71
2023/02/02 05:05:11;;;;;;;204.32;184.93;;;;;;;3.29;85.36;101543.78;5003438;28;20046;-71
2023/02/02 05:07:38;;;;;;;209.00;188.93;;;;;;;3.20;86.01;101536.25;4990164;28;20026;-71
2023/02/02 05:10:05;;;;;;;225.65;206.43;;;;;;;3.37;84.43;101542.75;5023151;28;20129;-71
2023/02/02 05:12:31;;;;;;;206.65;187.43;;;;;;;3.36;84.92;101554.38;5017935;28;20043;-71
2023/02/02 05:14:59;;;;;;;203.30;183.93;;;;;;;3.40;85.46;101565.41;5011616;28;20060;-72
2023/02/02 05:17:26;;;;;;;207.50;187.07;;;;;;;3.41;85.52;101549.31;5024132;28;20420;-71
2023/02/02 05:19:51;;;;;;;208.25;187.95;;;;;;;3.48;85.39;101563.34;5019011;28;20400;-71
2023/02/02 05:22:17;;;;;;;222.50;203.32;;;;;;;3.50;85.12;101552.56;5016306;28;20057;-73
2023/02/02 05:24:43;;;;;;;206.02;186.45;;;;;;;3.60;84.45;101560.13;5006464;28;20068;-73
2023/02/02 05:27:08;;;;;;;203.00;183.82;;;;;;;3.49;85.12;101554.38;5006346;28;20038;-73
2023/02/02 05:29:37;;;;;;;220.18;201.20;;;;;;;3.48;85.67;101552.75;5006307;28;20128;-70
2023/02/02 05:32:02;;;;;;;223.07;203.95;;;;;;;3.50;85.44;101561.31;5007903;28;20045;-72
2023/02/02 05:34:28;;;;;;;224.55;205.23;;;;;;;3.61;85.18;101562.56;5021221;28;20060;-72
2023/02/02 05:36:54;;;;;;;207.20;187.48;;;;;;;3.65;85.03;101568.25;5003663;28;20129;-72
2023/02/02 05:39:19;;;;;;;222.02;202.85;;;;;;;3.58;85.15;101567.44;5005327;28;20522;-72
2023/02/02 05:41:45;;;;;;;209.88;189.45;;;;;;;3.51;85.55;101578.84;5022939;28;20474;-72
2023/02/02 05:44:12;;;;;;;207.00;186.50;;;;;;;3.38;86.63;101583.28;4991412;28;20034;-72
2023/02/02 05:46:38;;;;;;;204.98;185.20;;;;;;;3.43;86.27;101580.88;5001984;28;20092;-72
2023/02/02 05:49:04;;;;;;;205.32;185.10;;;;;;;3.50;85.39;101593.09;5007946;28;20033;-72
2023/02/02 05:51:42;;;;;;;224.27;204.50;;;;;;;3.59;85.15;101591.09;5007186;28;20631;-72
2023/02/02 05:54:08;;;;;;;225.52;206.07;;;;;;;3.53;85.17;101597.19;4991691;28;20618;-70
2023/02/02 05:56:33;;;;;;;207.18;186.48;;;;;;;3.52;85.15;101601.69;5020906;28;20121;-72
2023/02/02 05:58:59;;;;;;;223.68;203.98;;;;;;;3.54;85.84;101598.81;5020041;28;20047;-73
2023/02/02 06:01:25;;;;;;;225.93;206.15;;;;;;;3.43;86.70;101608.16;5017738;28;20426;-73
2023/02/02 06:03:50;;;;;;;227.25;207.30;;;;;;;3.45;86.65;101600.81;5004370;28;20415;-71
2023/02/02 06:06:16;;;;;;;223.48;203.98;;;;;;;3.45;86.57;101614.06;5003946;28;20120;-72
2023/02/02 06:08:42;;;;;;;225.98;206.38;;;;;;;3.57;85.98;101609.00;5005891;28;20071;-71
2023/02/02 06:11:16;;;;;;;224.95;205.10;;;;;;;3.71;85.49;101615.13;5004358;28;20042;-70
2023/02/02 06:13:42;;;;;;;209.57;189.40;;;;;;;3.78;84.82;101616.75;5006132;28;20041;-73
2023/02/02 06:16:08;;;;;;;225.60;205.93;;;;;;;3.78;85.00;101615.94;5003593;28;20052;-71
2023/02/02 06:18:35;;;;;;;206.93;185.73;;;;;;;3.76;85.54;101618.00;4987695;28;20124;-74
2023/02/02 06:21:02;;;;;;;206.20;185.50;;;;;;;3.78;85.51;101626.53;5002859;28;20672;-73
2023/02/02 06:23:28;;;;;;;207.60;187.55;;;;;;;3.66;85.95;101631.66;5012410;28;20034;-71
2023/02/02 06:25:54;;;;;;;207.50;186.85;;;;;;;3.64;86.26;101633.66;5002487;28;20048;-73
2023/02/02 06:28:20;;;;;;;209.10;187.80;;;;;;;3.58;86.60;101636.28;4999697;28;20034;-74
2023/02/02 06:30:46;;;;;;;226.73;206.50;;;;;;;3.65;86.74;101640.59;5003608;28;20471;-72
2023/02/02 06:33:11;;;;;;;204.70;184.82;;;;;;;3.71;86.34;101637.13;5002093;28;20038;-70
2023/02/02 06:35:37;;;;;;;223.20;203.73;;;;;;;3.54;86.49;101641.19;4998807;28;20100;-72
2023/02/02 06:38:03;;;;;;;226.18;205.18;;;;;;;3.50;87.16;101647.91;5003188;28;20034;-72
2023/02/02 06:40:29;;;;;;;224.68;204.40;;;;;;;3.45;87.32;101643.19;5004741;28;20518;-73
2023/02/02 06:42:56;;;;;;;209.40;188.65;;;;;;;3.43;87.34;101653.19;5004635;28;20049;-72
2023/02/02 06:45:22;;;;;;;209.80;188.65;;;;;;;3.36;87.31;101664.78;5004044;28;20037;-74
2023/02/02 06:47:51;;;;;;;208.10;187.60;;;;;;;3.45;87.15;101656.44;5002005;28;20033;-72
2023/02/02 06:50:17;;;;;;;206.43;185.48;;;;;;;3.55;86.48;101664.81;5004738;28;20037;-74
2023/02/02 06:52:50;;;;;;;223.55;203.18;;;;;;;3.72;85.84;101670.53;4986122;28;20989;-71
2023/02/02 06:55:16;;;;;;;210.43;189.43;;;;;;;3.52;86.99;101673.19;5003483;28;20042;-73
2023/02/02 06:57:42;;;;;;;208.20;187.80;;;;;;;3.60;86.56;101679.31;5000537;28;20618;-72
2023/02/02 07:00:09;;;;;;;225.80;205.27;;;;;;;3.62;86.35;101671.97;5017584;28;20033;-72
2023/02/02 07:02:34;;;;;;;222.35;203.05;;;;;;;3.71;86.02;101681.34;5004137;28;20038;-72
2023/02/02 07:05:00;;;;;;;211.18;190.40;;;;;;;3.56;86.24;101686.81;5018671;28;20051;-72
2023/02/02 07:07:26;;;;;;;225.07;205.00;;;;;;;3.64;86.29;101686.63;5018956;28;20557;-73
2023/02/02 07:09:55;;;;;;;208.50;188.07;;;;;;;3.56;86.43;101695.59;5005777;28;20076;-74
2023/02/02 07:12:20;;;;;;;226.65;206.48;;;;;;;3.55;86.16;101691.31;5002432;28;20049;-71
2023/02/02 07:14:46;;;;;;;224.32;204.90;;;;;;;3.54;86.32;101696.81;5004728;28;20034;-73
2023/02/02 07:17:12;;;;;;;206.52;185.80;;;;;;;3.37;86.51;101701.63;5003014;28;20087;-72
2023/02/02 07:19:37;;;;;;;223.13;203.63;;;;;;;3.35;86.65;101701.03;5020341;28;20037;-72
2023/02/02 07:22:03;;;;;;;209.13;188.95;;;;;;;3.23;86.94;101703.41;5020523;28;20054;-71
2023/02/02 07:24:29;;;;;;;204.65;184.70;;;;;;;3.22;86.93;101707.09;5000624;28;20503;-71
2023/02/02 07:26:56;;;;;;;205.13;186.20;;;;;;;3.31;86.33;101713.00;5020848;28;20064;-71
2023/02/02 07:29:22;;;;;;;203.98;184.30;;;;;;;3.32;86.11;101719.13;5024370;28;20107;-71
2023/02/02 07:31:48;;;;;;;201.40;181.90;;;;;;;3.51;85.10;101716.56;5022042;28;20030;-71
2023/02/02 07:34:13;;;;;;;224.05;205.07;;;;;;;3.58;85.06;101726.34;5006417;28;20094;-71
2023/02/02 07:36:39;;;;;;;222.45;203.75;;;;;;;3.41;85.59;101729.38;5001637;28;20120;-72
2023/02/02 07:39:06;;;;;;;224.15;204.90;;;;;;;3.20;86.52;101740.88;5021601;28;20033;-71
2023/02/02 07:41:35;;;;;;;206.20;186.43;;;;;;;3.20;86.36;101740.06;5022505;28;20076;-71
2023/02/02 07:44:03;;;;;;;207.55;187.85;;;;;;;3.13;86.57;101734.75;5022768;28;20088;-72
2023/02/02 07:46:28;;;;;;;205.15;186.00;;;;;;;3.22;86.19;101738.84;5018229;28;20026;-72
2023/02/02 07:48:55;;;;;;;221.13;202.27;;;;;;;3.13;86.41;101742.69;5001970;28;20395;-71
2023/02/02 07:51:22;;;;;;;204.52;184.88;;;;;;;3.12;86.25;101753.47;5004864;28;20132;-71
2023/02/02 07:53:51;;;;;;;204.77;185.32;;;;;;;3.24;85.71;101759.81;5004632;28;20022;-72
2023/02/02 07:56:19;;;;;;;219.93;201.13;;;;;;;3.22;85.94;101764.50;4987725;28;20107;-72
2023/02/02 07:58:49;;;;;;;224.82;205.48;;;;;;;3.30;85.68;101766.97;5005315;28;20030;-72
2023/02/02 08:01:19;;;;;;;204.32;185.07;;;;;;;3.23;86.14;101758.19;5019535;28;20152;-72
2023/02/02 08:03:44;;;;;;;203.70;184.07;;;;;;;3.34;85.80;101773.53;5018862;28;20040;-72
2023/02/02 08:06:19;;;;;;;204.32;184.80;;;;;;;3.16;86.26;101775.88;5002413;28;20133;-71
2023/02/02 08:08:46;;;;;;;200.40;181.25;;;;;;;3.24;85.90;101779.16;5001743;28;20065;-72
2023/02/02 08:11:14;;;;;;;205.13;185.43;;;;;;;3.11;86.25;101783.56;5019577;28;20069;-71
2023/02/02 08:13:41;;;;;;;220.95;201.55;;;;;;;3.06;86.61;101783.34;5004647;28;20076;-73
2023/02/02 08:16:11;;;;;;;205.70;185.40;;;;;;;3.20;86.63;101788.53;4998596;28;20061;-72
2023/02/02 08:18:37;;;;;;;203.05;183.68;;;;;;;3.14;86.57;101791.13;5000977;28;20123;-72
2023/02/02 08:21:04;;;;;;;202.95;183.55;;;;;;;3.16;86.92;101800.50;5023901;28;20052;-72
2023/02/02 08:23:30;;;;;;;203.18;183.85;;;;;;;3.24;86.62;101799.53;4995758;28;20034;-72
2023/02/02 08:26:13;;;;;;;220.95;202.23;;;;;;;3.36;86.84;101813.88;5019960;28;20046;-72
2023/02/02 08:28:40;;;;;;;203.25;184.18;;;;;;;3.41;85.93;101816.75;4998418;28;20030;-71
2023/02/02 08:31:13;;;;;;;203.35;183.57;;;;;;;3.44;85.50;101821.63;5005832;28;20038;-72
2023/02/02 08:33:38;;;;;;;218.45;199.57;;;;;;;3.35;85.75;101824.66;5007714;28;20042;-72
2023/02/02 08:36:07;;;;;;;202.95;183.20;;;;;;;3.34;86.01;101821.19;4989699;28;20037;-73
2023/02/02 08:38:32;;;;;;;203.68;184.00;;;;;;;3.42;85.68;101828.16;5005756;28;20496;-74
2023/02/02 08:41:05;;;;;;;220.57;202.02;;;;;;;3.48;85.41;101833.50;5007971;28;20052;-73
2023/02/02 08:43:31;;;;;;;219.95;200.85;;;;;;;3.51;85.81;101822.50;5005729;28;20034;-73
2023/02/02 08:45:56;;;;;;;219.25;200.60;;;;;;;3.80;84.20;101826.72;5007828;28;20041;-72
2023/02/02 08:48:22;;;;;;;201.88;182.90;;;;;;;3.77;84.14;101836.88;5007346;28;20038;-71
2023/02/02 08:50:55;;;;;;;218.65;200.23;;;;;;;3.71;84.18;101840.31;5024049;28;20504;-71
2023/02/02 08:53:20;;;;;;;204.65;185.02;;;;;;;3.76;84.32;101837.91;5006464;28;20048;-72
2023/02/02 08:55:46;;;;;;;216.80;198.40;;;;;;;3.96;83.95;101840.63;5007768;28;20410;-74
2023/02/02 08:58:12;;;;;;;198.27;179.77;;;;;;;4.07;81.74;101838.22;5023823;28;20041;-72
2023/02/02 09:00:38;;;;;;;200.98;182.25;;;;;;;4.09;81.92;101845.97;5007361;28;20031;-73
2023/02/02 09:03:04;;;;;;;218.93;200.57;;;;;;;4.08;81.82;101854.94;4991598;28;20442;-73
2023/02/02 09:05:30;;;;;;;202.70;183.85;;;;;;;4.13;83.00;101863.09;5019686;28;20038;-71
2023/02/02 09:07:56;;;;;;;219.48;201.18;;;;;;;4.28;81.70;101862.97;5024024;28;20049;-72
2023/02/02 09:10:22;;;;;;;198.35;180.20;;;;;;;4.28;81.92;101865.59;4991430;28;20041;-70
2023/02/02 09:12:47;;;;;;;200.27;181.60;;;;;;;4.21;82.87;101870.09;5008126;28;20084;-72
2023/02/02 09:15:13;;;;;;;200.48;181.82;;;;;;;4.33;81.93;101873.75;5007012;28;20135;-71
2023/02/02 09:17:38;;;;;;;220.07;201.60;;;;;;;4.33;81.50;101873.75;5018860;28;20022;-71
2023/02/02 09:20:05;;;;;;;200.95;182.65;;;;;;;4.51;81.91;101865.25;5008004;28;20041;-72
2023/02/02 09:22:32;;;;;;;217.30;199.25;;;;;;;4.71;79.83;101878.53;5006905;28;20030;-71
2023/02/02 09:24:57;;;;;;;217.32;199.43;;;;;;;4.97;80.03;101891.81;5023082;28;20050;-71
2023/02/02 09:27:23;;;;;;;215.85;198.07;;;;;;;4.87;79.83;101889.56;5001938;28;20038;-71
2023/02/02 09:29:49;;;;;;;198.95;180.15;;;;;;;4.72;80.84;101894.25;5007647;28;20129;-71
2023/02/02 09:32:14;;;;;;;199.70;181.35;;;;;;;4.52;81.10;101896.06;5001370;28;20066;-71
2023/02/02 09:34:40;;;;;;;198.63;180.38;;;;;;;4.73;80.43;101895.06;5003769;28;20062;-72
2023/02/02 09:37:06;;;;;;;203.40;184.75;;;;;;;4.81;81.30;101908.13;5003190;28;20491;-72
2023/02/02 09:39:31;;;;;;;201.15;182.45;;;;;;;4.70;80.45;101908.75;5006670;28;20120;-72
2023/02/02 09:42:09;;;;;;;212.52;194.88;;;;;;;4.78;82.19;101917.31;5004999;28;20046;-72
2023/02/02 09:44:57;;;;;;;202.45;183.50;;;;;;;4.77;80.58;101917.53;5022761;28;20099;-72
2023/02/02 09:47:38;;;;;;;200.05;181.13;;;;;;;4.70;81.49;101916.72;5021960;28;20518;-71
2023/02/02 09:50:15;;;;;;;;;;;;;;;4.87;79.96;101928.56;5003400;28;20067;-71
2023/02/02 09:52:46;;;;;;;217.00;199.23;;;;;;;4.98;80.12;101925.31;5016825;28;19917;-71
2023/02/02 09:55:35;;;;;;;203.00;183.40;;;;;;;5.27;77.96;101924.06;5006328;28;20030;-71
2023/02/02 09:58:17;;;;;;;213.43;196.00;;;;;;;5.40;78.86;101928.56;5016860;28;20380;-72
2023/02/02 10:00:52;;;;;;;211.27;193.50;;;;;;;5.17;78.59;101931.66;5023125;28;20034;-72
2023/02/02 10:03:24;;;;;;;201.88;183.23;;;;;;;4.99;80.04;101931.44;5020995;28;20034;-72
2023/02/02 10:05:57;;;;;;;218.68;200.65;;;;;;;5.21;78.33;101935.50;5007074;28;20227;-72
2023/02/02 10:08:36;;;;;;;212.73;194.82;;;;;;;5.17;79.56;101940.44;5019936;28;20046;-71
2023/02/02 10:11:20;;;;;;;213.75;196.55;;;;;;;5.24;79.01;101950.25;5005220;28;20991;-72
2023/02/02 10:13:48;;;;;;;214.85;197.23;;;;;;;5.57;76.80;101939.59;5005014;28;20262;-73
2023/02/02 10:16:17;;;;;;;197.80;180.45;;;;;;;5.47;78.43;101950.63;5003843;28;20041;-72
2023/02/02 10:19:01;;;;;;;199.80;181.45;;;;;;;5.58;77.70;101947.34;5025455;28;20101;-72
2023/02/02 10:21:48;;;;;;;200.93;182.27;;;;;;;5.55;77.48;101953.06;5015381;28;20038;-73
2023/02/02 10:24:22;;;;;;;217.38;199.35;;;;;;;5.52;76.89;101965.97;5016978;28;20111;-73
2023/02/02 10:26:57;;;;;;;209.45;192.55;;;;;;;5.59;75.61;101956.94;5006211;28;20419;-71
2023/02/02 10:29:49;;;;;;;199.35;181.57;;;;;;;5.65;76.71;101969.41;5002358;28;20138;-73
2023/02/02 10:32:21;;;;;;;217.70;199.68;;;;;;;5.82;76.01;101969.78;5032627;28;20038;-70
2023/02/02 10:34:59;;;;;;;217.70;199.75;;;;;;;6.11;74.48;101973.84;5006915;28;20163;-70
2023/02/02 10:37:42;;;;;;;201.93;183.55;;;;;;;5.94;74.68;101985.97;5003113;28;20038;-72
2023/02/02 10:40:29;;;;;;;203.05;184.43;;;;;;;5.98;74.71;101984.53;5005212;28;20132;-72
2023/02/02 10:45:55;;;;;;;202.75;184.02;;;;;;;6.35;74.77;102006.09;5001173;28;20042;-70
2023/02/02 10:48:27;;;;;;;203.85;184.95;;;;;;;6.36;73.58;102007.72;5005948;28;20038;-71
2023/02/02 10:50:58;;;;;;;203.70;184.93;;;;;;;6.72;72.56;102013.31;5002373;28;20045;-69
2023/02/02 10:53:27;;;;;;;224.15;205.80;;;;;;;6.89;71.11;102016.28;5000659;28;20460;-74
2023/02/02 10:56:10;;;;;;;205.45;186.50;;;;;;;7.13;71.29;102020.03;5003571;28;20041;-73
2023/02/02 10:58:49;;;;;;;223.02;204.55;;;;;;;7.16;69.67;102018.78;5018415;28;20192;-69
2023/02/02 11:01:16;;;;;;;204.13;185.50;;;;;;;7.25;69.63;102020.97;5018872;28;20037;-72
2023/02/02 11:03:43;;;;;;;203.80;184.90;;;;;;;7.06;70.67;102020.06;5001542;28;20052;-71
2023/02/02 11:09:13;;;;;;;205.73;187.20;;;;;;;7.09;69.59;102034.81;4984675;28;20045;-71
2023/02/02 11:11:41;;;;;;;221.32;203.02;;;;;;;7.19;70.36;102037.81;5003932;28;20494;-71
2023/02/02 11:14:06;;;;;;;222.63;204.73;;;;;;;7.10;70.05;102041.75;5002593;28;20424;-70
2023/02/02 11:16:34;;;;;;;206.45;187.63;;;;;;;7.07;68.49;102044.88;5014066;28;20029;-70
2023/02/02 11:19:00;;;;;;;223.68;205.20;;;;;;;6.93;70.72;102040.66;5016813;28;20494;-70
2023/02/02 11:21:30;;;;;;;220.23;202.55;;;;;;;6.70;68.60;102041.97;4998010;28;20073;-71
2023/02/02 11:24:02;;;;;;;219.98;201.80;;;;;;;6.53;67.06;102040.81;5002406;28;20945;-70
2023/02/02 11:27:19;;;;;;;219.35;201.52;;;;;;;6.20;70.40;102035.59;4984277;28;20030;-71